Time;durP1;ratioP1;P1;durP2;ratioP2;P2;SDS_P1;SDS_P2;PMS_P1;PMS_P2;Temp;Humidity;BMP_temperature;BMP_pressure;BME280_temperature;BME280_humidity;BME280_pressure;Samples;Min_cycle;Max_cycle;Signal;HPM_P1;HPM_P2
2023/12/30 00:01:46;;;;;;;;;;;6.50;86.20;;;;;;5053113;28;19912;-90
2023/12/30 00:04:11;;;;;;;;;;;6.50;86.10;;;;;;5036413;28;19909;-89
2023/12/30 00:06:37;;;;;;;;;;;6.50;86.10;;;;;;5036621;28;20281;-89
2023/12/30 00:09:03;;;;;;;;;;;6.60;86.10;;;;;;5053747;28;19905;-91
2023/12/30 00:11:28;;;;;;;;;;;6.50;86.30;;;;;;5035005;28;19912;-90
2023/12/30 00:13:54;;;;;;;;;;;6.50;86.40;;;;;;5036002;28;19905;-90
2023/12/30 00:16:19;;;;;;;;;;;6.60;86.50;;;;;;5034937;28;19977;-90
2023/12/30 00:18:45;;;;;;;;;;;6.60;86.50;;;;;;5035324;28;19913;-91
2023/12/30 00:21:10;;;;;;;;;;;6.60;86.50;;;;;;5034930;28;19909;-90
2023/12/30 00:23:37;;;;;;;;;;;6.60;86.70;;;;;;5034783;28;19999;-92
2023/12/30 00:26:03;;;;;;;;;;;6.60;86.90;;;;;;5034942;28;19955;-90
2023/12/30 00:28:28;;;;;;;;;;;6.50;87.60;;;;;;5034727;28;19905;-91
2023/12/30 00:30:54;;;;;;;;;;;6.50;87.80;;;;;;5034710;28;19931;-90
2023/12/30 00:33:19;;;;;;;;;;;6.40;88.10;;;;;;5035576;28;19959;-91
2023/12/30 00:35:45;;;;;;;;;;;6.40;88.40;;;;;;5034875;28;19911;-90
2023/12/30 00:38:10;;;;;;;;;;;6.40;88.30;;;;;;5035148;28;20384;-89
2023/12/30 00:40:36;;;;;;;;;;;6.50;88.20;;;;;;5034401;28;19905;-89
2023/12/30 00:43:01;;;;;;;;;;;6.50;88.20;;;;;;5034272;28;19909;-90
2023/12/30 00:45:26;;;;;;;;;;;6.60;88.20;;;;;;5033974;28;19905;-90
2023/12/30 00:47:52;;;;;;;;;;;6.60;88.00;;;;;;5034799;28;19905;-89
2023/12/30 00:50:17;;;;;;;;;;;6.50;88.60;;;;;;5034671;28;19905;-89
2023/12/30 00:52:43;;;;;;;;;;;6.40;89.10;;;;;;5034345;28;19905;-89
2023/12/30 00:55:08;;;;;;;;;;;6.40;90.00;;;;;;5035074;28;19905;-91
2023/12/30 00:57:34;;;;;;;;;;;6.30;89.40;;;;;;5035590;28;19905;-91
2023/12/30 00:59:59;;;;;;;;;;;5.90;89.30;;;;;;5037626;28;19909;-93
2023/12/30 01:02:25;;;;;;;;;;;5.20;90.30;;;;;;5038854;28;19911;-93
2023/12/30 01:04:50;;;;;;;;;;;5.30;90.90;;;;;;5041911;28;19981;-93
2023/12/30 01:07:16;;;;;;;;;;;5.30;91.40;;;;;;5040285;28;20284;-92
2023/12/30 01:09:41;;;;;;;;;;;5.30;91.80;;;;;;5039229;28;19905;-92
2023/12/30 01:12:07;;;;;;;;;;;5.40;92.00;;;;;;5043419;28;19905;-91
2023/12/30 01:14:33;;;;;;;;;;;5.60;92.10;;;;;;5037245;28;20344;-93
2023/12/30 01:16:58;;;;;;;;;;;5.60;92.10;;;;;;5035092;28;20007;-91
2023/12/30 01:19:24;;;;;;;;;;;5.70;91.80;;;;;;5035595;28;19917;-91
2023/12/30 01:21:49;;;;;;;;;;;5.70;91.70;;;;;;5035653;28;19959;-91
2023/12/30 01:24:15;;;;;;;;;;;5.60;91.40;;;;;;5036532;28;19916;-92
2023/12/30 01:26:41;;;;;;;;;;;5.70;91.40;;;;;;5036409;28;19995;-92
2023/12/30 01:29:06;;;;;;;;;;;5.70;91.20;;;;;;5035997;28;19904;-90
2023/12/30 01:31:32;;;;;;;;;;;5.80;90.70;;;;;;5036412;28;19968;-93
2023/12/30 01:33:57;;;;;;;;;;;5.80;90.20;;;;;;5036824;28;19905;-92
2023/12/30 01:36:22;;;;;;;;;;;5.60;90.10;;;;;;5035972;28;19905;-92
2023/12/30 01:38:48;;;;;;;;;;;5.60;90.30;;;;;;5036765;28;19905;-91
2023/12/30 01:41:14;;;;;;;;;;;5.60;90.00;;;;;;5037059;28;20365;-91
2023/12/30 01:43:39;;;;;;;;;;;5.50;90.10;;;;;;5036861;28;19909;-93
2023/12/30 01:46:07;;;;;;;;;;;5.40;90.40;;;;;;5036623;28;19905;-90
2023/12/30 01:48:33;;;;;;;;;;;5.40;90.50;;;;;;5052754;28;19905;-91
2023/12/30 01:51:00;;;;;;;;;;;5.50;90.40;;;;;;5036606;28;19905;-92
2023/12/30 01:53:26;;;;;;;;;;;5.60;90.10;;;;;;5036929;28;19972;-90
2023/12/30 01:55:52;;;;;;;;;;;5.60;90.20;;;;;;5037153;28;19905;-91
2023/12/30 01:58:19;;;;;;;;;;;5.70;90.20;;;;;;5037486;28;19951;-92
2023/12/30 02:00:57;;;;;;;;;;;5.70;90.10;;;;;;5037014;28;19905;-91
2023/12/30 02:03:22;;;;;;;;;;;5.80;89.90;;;;;;5036536;28;19909;-92
2023/12/30 02:05:48;;;;;;;;;;;5.80;90.00;;;;;;5036919;28;19912;-89
2023/12/30 02:08:14;;;;;;;;;;;5.90;89.70;;;;;;5037056;28;19905;-92
2023/12/30 02:10:40;;;;;;;;;;;5.90;89.60;;;;;;5037419;28;20387;-92
2023/12/30 02:13:05;;;;;;;;;;;5.80;89.50;;;;;;5036706;28;19905;-91
2023/12/30 02:15:31;;;;;;;;;;;5.80;89.40;;;;;;5036766;28;19905;-92
2023/12/30 02:17:57;;;;;;;;;;;5.90;89.30;;;;;;5036421;28;19913;-92
2023/12/30 02:20:23;;;;;;;;;;;5.80;89.40;;;;;;5037617;28;19905;-91
2023/12/30 02:22:49;;;;;;;;;;;5.70;89.70;;;;;;5036101;28;19912;-90
2023/12/30 02:25:14;;;;;;;;;;;5.70;89.50;;;;;;5037637;28;20354;-92
2023/12/30 02:27:41;;;;;;;;;;;5.70;89.50;;;;;;5037038;28;19909;-92
2023/12/30 02:30:07;;;;;;;;;;;5.80;89.40;;;;;;5037114;28;20358;-91
2023/12/30 02:32:32;;;;;;;;;;;5.80;89.40;;;;;;5039373;28;19905;-92
2023/12/30 02:34:58;;;;;;;;;;;5.70;89.30;;;;;;5036712;28;20368;-90
2023/12/30 02:37:23;;;;;;;;;;;5.80;89.10;;;;;;5037784;28;19965;-90
2023/12/30 02:39:49;;;;;;;;;;;5.70;89.10;;;;;;5036606;28;19958;-91
2023/12/30 02:42:14;;;;;;;;;;;5.70;89.10;;;;;;5036691;28;20293;-92
2023/12/30 02:44:40;;;;;;;;;;;5.70;89.30;;;;;;5037775;28;19913;-92
2023/12/30 02:47:05;;;;;;;;;;;5.80;89.10;;;;;;5036566;28;19906;-91
2023/12/30 02:49:32;;;;;;;;;;;5.80;89.00;;;;;;5036561;28;19905;-91
2023/12/30 02:51:57;;;;;;;;;;;5.80;88.90;;;;;;5038089;28;20359;-92
2023/12/30 02:54:23;;;;;;;;;;;5.70;89.00;;;;;;5037109;28;19905;-89
2023/12/30 02:56:48;;;;;;;;;;;5.70;88.90;;;;;;5036049;28;19909;-92
2023/12/30 02:59:14;;;;;;;;;;;5.60;89.00;;;;;;5035551;28;19905;-92
2023/12/30 03:01:39;;;;;;;;;;;5.70;89.00;;;;;;5035653;28;20007;-91
2023/12/30 03:04:05;;;;;;;;;;;5.70;88.90;;;;;;5036670;28;19916;-91
2023/12/30 03:06:31;;;;;;;;;;;5.60;89.00;;;;;;5036367;28;19949;-91
2023/12/30 03:08:56;;;;;;;;;;;5.70;88.90;;;;;;5039471;28;19983;-91
2023/12/30 03:11:23;;;;;;;;;;;5.60;89.00;;;;;;5040161;28;19911;-91
2023/12/30 03:13:48;;;;;;;5.43;4.73;;;5.60;89.10;;;;;;5041787;28;19972;-92
2023/12/30 03:16:14;;;;;;;10.97;5.27;;;5.60;89.00;;;;;;5040162;28;20207;-93
2023/12/30 03:18:41;;;;;;;9.27;8.47;;;5.70;89.00;;;;;;5056057;28;20215;-91
2023/12/30 03:21:08;;;;;;;11.70;10.80;;;5.70;89.10;;;;;;5055695;28;20192;-91
2023/12/30 03:23:34;;;;;;;;;;;5.70;88.80;;;;;;5039219;28;20204;-93
2023/12/30 03:26:00;;;;;;;13.07;5.57;;;5.60;88.70;;;;;;5039874;28;19905;-91
2023/12/30 03:28:26;;;;;;;8.10;5.55;;;5.60;88.60;;;;;;5055724;28;20206;-90
2023/12/30 03:30:52;;;;;;;14.47;12.07;;;5.60;88.60;;;;;;5055183;28;19905;-91
2023/12/30 03:33:18;;;;;;;13.60;12.37;;;5.60;88.50;;;;;;5039021;28;20643;-90
2023/12/30 03:35:43;;;;;;;9.40;6.00;;;5.60;88.50;;;;;;5038628;28;20227;-89
2023/12/30 03:38:09;;;;;;;10.60;5.43;;;5.60;88.40;;;;;;5055717;28;20628;-91
2023/12/30 03:40:34;;;;;;;;;;;5.60;88.70;;;;;;5055021;28;20295;-93
2023/12/30 03:43:01;;;;;;;12.50;5.80;;;5.60;89.00;;;;;;5038004;28;20452;-90
2023/12/30 03:45:26;;;;;;;15.33;5.90;;;5.60;89.20;;;;;;5054844;28;20197;-92
2023/12/30 03:47:55;;;;;;;13.60;5.10;;;5.70;89.30;;;;;;5038231;28;20173;-92
2023/12/30 03:50:20;;;;;;;12.90;6.10;;;5.80;89.40;;;;;;5056410;28;20224;-93
2023/12/30 03:52:46;;;;;;;5.80;4.20;;;5.80;89.40;;;;;;5057007;28;20184;-91
2023/12/30 03:55:12;;;;;;;8.55;5.50;;;5.80;89.50;;;;;;5054869;28;20156;-91
2023/12/30 03:57:38;;;;;;;12.27;4.40;;;5.80;89.80;;;;;;5055502;28;20179;-90
2023/12/30 04:00:04;;;;;;;8.80;4.40;;;5.80;89.70;;;;;;5055533;28;20148;-90
2023/12/30 04:02:30;;;;;;;7.23;5.37;;;5.80;89.80;;;;;;5053750;28;20180;-92
2023/12/30 04:04:56;;;;;;;11.37;5.20;;;5.70;90.20;;;;;;5051987;28;20205;-92
2023/12/30 04:07:21;;;;;;;14.97;5.10;;;5.70;90.00;;;;;;5052271;28;20203;-92
2023/12/30 04:09:47;;;;;;;15.70;5.20;;;5.60;90.60;;;;;;5052723;28;20200;-91
2023/12/30 04:12:12;;;;;;;14.23;4.20;;;5.60;90.70;;;;;;5052582;28;20226;-92
2023/12/30 04:14:38;;;;;;;12.60;8.57;;;5.60;91.10;;;;;;5052341;28;20181;-92
2023/12/30 04:17:04;;;;;;;19.93;9.03;;;5.60;91.30;;;;;;5052973;28;20747;-92
2023/12/30 04:19:29;;;;;;;12.90;9.47;;;5.60;91.50;;;;;;5052915;28;20587;-91
2023/12/30 04:21:55;;;;;;;16.67;9.10;;;5.60;91.70;;;;;;5052943;28;20184;-92
2023/12/30 04:24:21;;;;;;;15.10;9.00;;;5.60;91.80;;;;;;5053387;28;20204;-92
2023/12/30 04:26:47;;;;;;;16.87;10.13;;;5.60;91.90;;;;;;5053218;28;20176;-92
2023/12/30 04:29:13;;;;;;;13.90;9.33;;;5.60;92.10;;;;;;5036206;28;20200;-92
2023/12/30 04:31:38;;;;;;;15.53;8.70;;;5.60;92.20;;;;;;5053322;28;20173;-92
2023/12/30 04:34:05;;;;;;;14.60;9.50;;;5.60;92.30;;;;;;5053250;28;20292;-92
2023/12/30 04:36:30;;;;;;;12.00;8.87;;;5.60;92.50;;;;;;5052709;28;20242;-91
2023/12/30 04:38:56;;;;;;;11.43;8.83;;;5.50;92.70;;;;;;5052898;28;20596;-91
2023/12/30 04:41:21;;;;;;;12.80;9.00;;;5.50;92.60;;;;;;5052285;28;20749;-91
2023/12/30 04:43:47;;;;;;;13.80;8.90;;;5.50;92.60;;;;;;5052457;28;20696;-92
2023/12/30 04:46:13;;;;;;;12.17;10.13;;;5.50;92.50;;;;;;5051966;28;20185;-92
2023/12/30 04:48:39;;;;;;;8.30;7.67;;;5.60;92.50;;;;;;5035733;28;20227;-93
2023/12/30 04:51:05;;;;;;;11.77;5.37;;;5.50;92.70;;;;;;5056629;28;20204;-91
2023/12/30 04:53:31;;;;;;;8.43;4.30;;;5.60;92.90;;;;;;5051537;28;20208;-91
2023/12/30 04:55:56;;;;;;;12.00;7.87;;;5.60;92.90;;;;;;5051397;28;20181;-91
2023/12/30 04:58:22;;;;;;;12.10;7.80;;;5.60;92.60;;;;;;5051503;28;20177;-91
2023/12/30 05:00:48;;;;;;;10.30;9.03;;;5.70;92.40;;;;;;5051224;28;19905;-91
2023/12/30 05:03:14;;;;;;;;;;;5.80;92.10;;;;;;5051356;28;20200;-93
2023/12/30 05:05:40;;;;;;;;;;;5.80;91.30;;;;;;5034634;28;19905;-91
2023/12/30 05:08:06;;;;;;;;;;;5.90;90.70;;;;;;5034522;28;19905;-93
2023/12/30 05:10:33;;;;;;;;;;;5.80;90.60;;;;;;5034888;28;19909;-92
2023/12/30 05:12:59;;;;;;;12.30;8.77;;;5.80;90.80;;;;;;5034452;28;20202;-92
2023/12/30 05:15:25;;;;;;;14.37;4.97;;;5.90;90.70;;;;;;5051088;28;20173;-92
2023/12/30 05:17:50;;;;;;;;;;;5.80;90.80;;;;;;5051658;28;20080;-91
2023/12/30 05:20:17;;;;;;;;;;;5.90;91.00;;;;;;5034042;28;19909;-91
2023/12/30 05:22:43;;;;;;;;;;;5.90;91.20;;;;;;5034404;28;20003;-91
2023/12/30 05:25:09;;;;;;;;;;;5.80;91.30;;;;;;5033969;28;20411;-90
2023/12/30 05:27:35;;;;;;;;;;;5.80;91.50;;;;;;5034112;28;19905;-92
2023/12/30 05:30:01;;;;;;;;;;;5.80;91.70;;;;;;5033874;28;19959;-90
2023/12/30 05:32:26;;;;;;;;;;;5.80;91.50;;;;;;5034656;28;19905;-90
2023/12/30 05:34:52;;;;;;;;;;;5.80;91.40;;;;;;5033938;28;19905;-90
2023/12/30 05:37:17;;;;;;;;;;;5.90;91.10;;;;;;5034146;28;20030;-91
2023/12/30 05:39:43;;;;;;;;;;;5.80;91.30;;;;;;5034096;28;19905;-91
2023/12/30 05:42:08;;;;;;;;;;;5.80;91.60;;;;;;5034071;28;20419;-93
2023/12/30 05:44:34;;;;;;;;;;;5.80;91.70;;;;;;5034506;28;20357;-92
2023/12/30 05:46:59;;;;;;;;;;;5.80;92.00;;;;;;5034538;28;19988;-91
2023/12/30 05:49:25;;;;;;;;;;;5.70;92.20;;;;;;5034751;28;19905;-89
2023/12/30 05:51:50;;;;;;;;;;;5.70;92.30;;;;;;5034736;28;19909;-90
2023/12/30 05:54:16;;;;;;;;;;;5.70;92.40;;;;;;5034572;28;19905;-90
2023/12/30 05:56:41;;;;;;;;;;;5.60;92.60;;;;;;5034516;28;19905;-91
2023/12/30 05:59:07;;;;;;;;;;;5.60;92.80;;;;;;5034080;28;20361;-91
2023/12/30 06:01:32;;;;;;;;;;;5.70;92.70;;;;;;5036657;28;19905;-91
2023/12/30 06:03:58;;;;;;;;;;;5.70;92.60;;;;;;5037020;28;20000;-91
2023/12/30 06:06:23;;;;;;;;;;;5.70;92.30;;;;;;5035980;28;19905;-92
2023/12/30 06:08:49;;;;;;;;;;;5.80;92.20;;;;;;5035864;28;19905;-91
2023/12/30 06:11:14;;;;;;;;;;;5.80;92.00;;;;;;5034296;28;19911;-92
2023/12/30 06:13:41;;;;;;;;;;;5.80;91.60;;;;;;5034401;28;19916;-89
2023/12/30 06:16:08;;;;;;;;;;;5.90;91.10;;;;;;5033737;28;20372;-92
2023/12/30 06:18:34;;;;;;;;;;;6.00;90.60;;;;;;5036303;28;19913;-92
2023/12/30 06:20:59;;;;;;;;;;;6.00;90.60;;;;;;5038650;28;20004;-92
2023/12/30 06:23:28;;;;;;;;;;;6.00;90.80;;;;;;5041854;28;19956;-94
2023/12/30 06:25:54;;;;;;;;;;;5.90;91.10;;;;;;5039977;28;19928;-94
2023/12/30 06:28:20;;;;;;;;;;;5.90;91.30;;;;;;5040905;28;19905;-93
2023/12/30 06:30:46;;;;;;;;;;;5.90;91.30;;;;;;5040258;28;19972;-92
2023/12/30 06:33:12;;;;;;;;;;;5.90;91.50;;;;;;5042082;28;19913;-92
2023/12/30 06:35:38;;;;;;;;;;;6.00;91.50;;;;;;5037968;28;19912;-92
2023/12/30 06:38:03;;;;;;;;;;;6.00;91.00;;;;;;5036795;28;20357;-91
2023/12/30 06:40:29;;;;;;;;;;;6.00;91.20;;;;;;5033432;28;20408;-92
2023/12/30 06:42:54;;;;;;;;;;;5.90;91.60;;;;;;5035126;28;20357;-92
2023/12/30 06:45:21;;;;;;;;;;;5.80;91.80;;;;;;5048344;28;19909;-92
2023/12/30 06:47:46;;;;;;;;;;;5.80;91.90;;;;;;5046284;28;19905;-91
2023/12/30 06:50:12;;;;;;;;;;;5.80;92.00;;;;;;5039856;28;19951;-90
2023/12/30 06:52:38;;;;;;;;;;;5.90;91.70;;;;;;5041427;28;20016;-92
2023/12/30 06:55:03;;;;;;;;;;;5.80;91.70;;;;;;5040150;28;19913;-91
2023/12/30 06:57:29;;;;;;;;;;;5.80;91.90;;;;;;5039190;28;19905;-92
2023/12/30 06:59:55;;;;;;;;;;;5.80;91.70;;;;;;5038094;28;19912;-92
2023/12/30 07:02:21;;;;;;;;;;;5.80;91.40;;;;;;5056463;28;19909;-92
2023/12/30 07:04:46;;;;;;;;;;;5.70;91.50;;;;;;5039193;28;19947;-92
2023/12/30 07:07:12;;;;;;;;;;;5.60;91.60;;;;;;5040733;28;19928;-92
2023/12/30 07:09:38;;;;;;;;;;;5.50;91.60;;;;;;5040631;28;19905;-92
2023/12/30 07:12:04;;;;;;;;;;;5.50;91.70;;;;;;5041262;28;19905;-91
2023/12/30 07:14:34;;;;;;;;;;;5.50;91.90;;;;;;5041609;28;20423;-92
2023/12/30 07:16:59;;;;;;;;;;;5.50;92.00;;;;;;5041805;28;19936;-93
2023/12/30 07:19:26;;;;;;;;;;;5.50;92.10;;;;;;5040329;28;20396;-91
2023/12/30 07:21:52;;;;;;;;;;;5.40;92.10;;;;;;5040528;28;19909;-92
2023/12/30 07:24:18;;;;;;;;;;;5.40;92.30;;;;;;5040842;28;19984;-92
2023/12/30 07:26:44;;;;;;;;;;;5.50;92.40;;;;;;5042200;28;19909;-91
2023/12/30 07:29:10;;;;;;;;;;;5.50;92.50;;;;;;5043007;28;19905;-93
2023/12/30 07:31:35;;;;;;;;;;;5.50;92.50;;;;;;5042513;28;19955;-92
2023/12/30 07:34:01;;;;;;;12.17;7.67;;;5.60;92.50;;;;;;5043927;28;20199;-92
2023/12/30 07:36:27;;;;;;;13.47;7.83;;;5.60;92.50;;;;;;5059731;28;20253;-92
2023/12/30 07:38:53;;;;;;;17.07;9.40;;;5.70;92.30;;;;;;5060602;28;20180;-93
2023/12/30 07:41:18;;;;;;;8.70;7.83;;;5.80;92.00;;;;;;5064743;28;20176;-92
2023/12/30 07:43:44;;;;;;;13.93;8.63;;;5.80;91.90;;;;;;5070497;28;20211;-93
2023/12/30 07:46:10;;;;;;;14.77;8.67;;;5.80;91.90;;;;;;5052442;28;20180;-91
2023/12/30 07:48:35;;;;;;;;;;;5.80;91.80;;;;;;5065682;28;20201;-92
2023/12/30 07:51:01;;;;;;;;;;;5.80;91.90;;;;;;5066675;28;19905;-91
2023/12/30 07:53:26;;;;;;;;;;;5.80;91.80;;;;;;5070223;28;19896;-92
2023/12/30 07:55:51;;;;;;;;;;;5.90;91.40;;;;;;5055759;28;19905;-92
2023/12/30 07:58:17;;;;;;;;;;;5.90;91.50;;;;;;5048655;28;19927;-91
2023/12/30 08:00:43;;;;;;;;;;;5.80;91.70;;;;;;5049234;28;19940;-92
2023/12/30 08:03:08;;;;;;;;;;;5.30;90.90;;;;;;5040935;28;19995;-91
2023/12/30 08:05:34;;;;;;;;;;;4.80;91.20;;;;;;5040097;28;19911;-91
2023/12/30 08:07:59;;;;;;;;;;;4.90;91.50;;;;;;5038947;28;19974;-92
2023/12/30 08:10:25;;;;;;;;;;;4.80;91.70;;;;;;5038695;28;19905;-91
2023/12/30 08:12:51;;;;;;;;;;;4.70;91.80;;;;;;5042526;28;19909;-92
2023/12/30 08:15:16;;;;;;;;;;;4.80;92.10;;;;;;5050024;28;19968;-92
2023/12/30 08:17:42;;;;;;;;;;;4.80;92.30;;;;;;5039318;28;19913;-92
2023/12/30 08:20:07;;;;;;;;;;;4.80;92.40;;;;;;5038172;28;19905;-92
2023/12/30 08:22:33;;;;;;;;;;;4.80;92.60;;;;;;5037182;28;19905;-91
2023/12/30 08:24:58;;;;;;;;;;;4.90;92.70;;;;;;5037832;28;19909;-92
2023/12/30 08:27:24;;;;;;;;;;;4.90;92.80;;;;;;5039327;28;19955;-92
2023/12/30 08:29:49;;;;;;;;;;;4.80;93.00;;;;;;5036648;28;20357;-92
2023/12/30 08:32:15;;;;;;;;;;;4.90;93.20;;;;;;5037313;28;19909;-92
2023/12/30 08:34:40;;;;;;;;;;;4.90;93.20;;;;;;5038134;28;19909;-91
2023/12/30 08:37:08;;;;;;;;;;;4.90;93.30;;;;;;5053986;28;19971;-92
2023/12/30 08:39:35;;;;;;;;;;;4.90;93.40;;;;;;5039626;28;19905;-93
2023/12/30 08:42:02;;;;;;;;;;;5.00;93.40;;;;;;5038705;28;19917;-92
2023/12/30 08:44:27;;;;;;;;;;;5.00;93.40;;;;;;5035115;28;19909;-92
2023/12/30 08:46:53;;;;;;;;;;;5.00;93.40;;;;;;5034837;28;19927;-92
2023/12/30 08:49:18;;;;;;;;;;;4.90;93.50;;;;;;5035024;28;19905;-93
2023/12/30 08:51:43;;;;;;;;;;;4.90;93.60;;;;;;5035027;28;20349;-92
2023/12/30 08:54:09;;;;;;;;;;;4.90;93.60;;;;;;5036186;28;19909;-92
2023/12/30 08:56:34;;;;;;;;;;;4.90;93.60;;;;;;5037976;28;19905;-92
2023/12/30 08:59:00;;;;;;;;;;;4.90;93.60;;;;;;5038570;28;20419;-92
2023/12/30 09:01:26;;;;;;;;;;;5.00;93.50;;;;;;5037966;28;19905;-92
2023/12/30 09:03:51;;;;;;;;;;;5.00;93.50;;;;;;5051657;28;19909;-91
2023/12/30 09:06:16;;;;;;;;;;;5.00;93.40;;;;;;5037624;28;19905;-91
2023/12/30 09:08:42;;;;;;;;;;;5.00;93.40;;;;;;5036142;28;19905;-92
2023/12/30 09:11:18;;;;;;;;;;;5.00;93.40;;;;;;5035451;28;19905;-91
2023/12/30 09:13:43;;;;;;;;;;;5.10;93.20;;;;;;5033987;28;19905;-90
2023/12/30 09:16:09;;;;;;;;;;;5.00;93.30;;;;;;5033996;28;19905;-92
2023/12/30 09:18:35;;;;;;;;;;;5.00;93.30;;;;;;5041192;28;19912;-92
2023/12/30 09:21:00;;;;;;;;;;;5.00;93.40;;;;;;5034048;28;20325;-92
2023/12/30 09:23:26;;;;;;;;;;;5.00;93.40;;;;;;5034244;28;20290;-90
2023/12/30 09:25:52;;;;;;;;;;;5.00;93.50;;;;;;5034674;28;19912;-90
2023/12/30 09:28:17;;;;;;;;;;;5.00;93.70;;;;;;5034989;28;19905;-91
2023/12/30 09:30:42;;;;;;;;;;;5.00;93.80;;;;;;5034250;28;19936;-90
2023/12/30 09:33:08;;;;;;;;;;;5.00;93.90;;;;;;5033907;28;19912;-90
2023/12/30 09:35:33;;;;;;;;;;;5.00;94.00;;;;;;5033267;28;19905;-90
2023/12/30 09:37:59;;;;;;;;;;;5.00;94.10;;;;;;5033291;28;19928;-90
2023/12/30 09:40:26;;;;;;;;;;;5.00;94.30;;;;;;5034701;28;19948;-91
2023/12/30 09:42:53;;;;;;;;;;;5.00;94.20;;;;;;5033388;28;19905;-91
2023/12/30 09:45:19;;;;;;;;;;;5.10;94.20;;;;;;5034564;28;20384;-90
2023/12/30 09:47:45;;;;;;;;;;;5.10;94.20;;;;;;5036888;28;19905;-91
2023/12/30 09:50:11;;;;;;;;;;;5.10;94.20;;;;;;5036893;28;19905;-91
2023/12/30 09:52:36;;;;;;;;;;;5.20;94.10;;;;;;5033184;28;19911;-91
2023/12/30 09:55:02;;;;;;;;;;;5.20;94.00;;;;;;5033210;28;20331;-90
2023/12/30 09:57:27;;;;;;;;;;;5.20;93.90;;;;;;5036683;28;19956;-92
2023/12/30 09:59:54;;;;;;;;;;;5.20;93.50;;;;;;5040369;28;19959;-91
2023/12/30 10:02:19;;;;;;;;;;;5.30;93.00;;;;;;5042089;28;19912;-92
2023/12/30 10:04:45;;;;;;;;;;;5.20;92.30;;;;;;5050684;28;20285;-90
2023/12/30 10:07:11;;;;;;;;;;;5.20;92.40;;;;;;5036195;28;20010;-90
2023/12/30 10:09:37;;;;;;;;;;;5.30;92.50;;;;;;5037449;28;20000;-90
2023/12/30 10:12:03;;;;;;;;;;;5.30;92.40;;;;;;5037906;28;20002;-91
2023/12/30 10:14:28;;;;;;;;;;;5.30;92.40;;;;;;5038683;28;20357;-91
2023/12/30 10:16:53;;;;;;;;;;;5.30;92.40;;;;;;5038752;28;19905;-91
2023/12/30 10:19:19;;;;;;;;;;;5.30;92.40;;;;;;5035393;28;19917;-90
2023/12/30 10:21:44;;;;;;;;;;;5.30;92.00;;;;;;5044480;28;19912;-91
2023/12/30 10:24:10;;;;;;;;;;;5.40;91.80;;;;;;5036343;28;19920;-90
2023/12/30 10:26:37;;;;;;;;;;;5.40;91.80;;;;;;5034725;28;19905;-90
2023/12/30 10:29:05;;;;;;;;;;;5.40;91.50;;;;;;5033840;28;20364;-89
2023/12/30 10:31:30;;;;;;;;;;;5.40;91.50;;;;;;5033084;28;19912;-88
2023/12/30 10:33:55;;;;;;;;;;;5.40;91.50;;;;;;5032920;28;19909;-90
2023/12/30 10:36:22;;;;;;;;;;;5.30;91.30;;;;;;5032793;28;19992;-90
2023/12/30 10:38:48;;;;;;;;;;;5.30;91.60;;;;;;5032512;28;20382;-92
2023/12/30 10:41:14;;;;;;;;;;;5.30;91.90;;;;;;5032233;28;20432;-91
2023/12/30 10:43:39;;;;;;;;;;;5.30;92.20;;;;;;5032555;28;19955;-91
2023/12/30 10:46:09;;;;;;;;;;;5.20;92.10;;;;;;5033365;28;19912;-92
2023/12/30 10:48:36;;;;;;;;;;;5.20;92.10;;;;;;5034990;28;19905;-90
2023/12/30 10:51:02;;;;;;;;;;;5.20;92.30;;;;;;5032239;28;19905;-91
2023/12/30 10:53:40;;;;;;;;;;;5.20;92.40;;;;;;5033993;28;19905;-91
2023/12/30 10:56:09;;;;;;;;;;;5.20;92.60;;;;;;5032265;28;20332;-90
2023/12/30 10:58:35;;;;;;;;;;;5.20;92.70;;;;;;5032311;28;19905;-90
2023/12/30 11:01:04;;;;;;;;;;;5.20;92.80;;;;;;5032365;28;20327;-90
2023/12/30 11:03:31;;;;;;;;;;;5.30;92.70;;;;;;5032351;28;19916;-91
2023/12/30 11:06:18;;;;;;;;;;;5.30;92.70;;;;;;5033574;28;19936;-91
2023/12/30 11:08:44;;;;;;;;;;;5.50;92.50;;;;;;5033615;28;19904;-90
2023/12/30 11:11:11;;;;;;;;;;;5.50;92.60;;;;;;5032345;28;20388;-90
2023/12/30 11:13:37;;;;;;;;;;;5.50;92.60;;;;;;5032178;28;20396;-89
2023/12/30 11:16:23;;;;;;;;;;;5.60;92.60;;;;;;5032885;28;19920;-90
2023/12/30 11:18:49;;;;;;;;;;;5.60;92.70;;;;;;5031360;28;20336;-90
2023/12/30 11:21:33;;;;;;;;;;;5.60;92.90;;;;;;5032291;28;20384;-90
2023/12/30 11:24:03;;;;;;;;;;;5.70;92.90;;;;;;5033669;28;19909;-89
2023/12/30 11:26:29;;;;;;;;;;;5.70;92.70;;;;;;5032386;28;19905;-89
2023/12/30 11:28:57;;;;;;;;;;;5.70;92.70;;;;;;5034272;28;20051;-90
2023/12/30 11:31:29;;;;;;;;;;;5.80;92.90;;;;;;5035838;28;20320;-88
2023/12/30 11:33:55;;;;;;;;;;;5.80;92.90;;;;;;5037276;28;19959;-88
2023/12/30 11:36:20;;;;;;;;;;;5.80;92.80;;;;;;5036040;28;20375;-89
2023/12/30 11:38:47;;;;;;;;;;;5.80;92.90;;;;;;5036694;28;20007;-89
2023/12/30 11:41:13;;;;;;;;;;;5.80;92.90;;;;;;5035740;28;19908;-89
2023/12/30 11:43:39;;;;;;;;;;;5.90;92.90;;;;;;5052291;28;19979;-89
2023/12/30 11:46:05;;;;;;;;;;;5.90;92.90;;;;;;5035700;28;19905;-89
2023/12/30 11:48:30;;;;;;;;;;;5.90;92.70;;;;;;5035635;28;19909;-90
2023/12/30 11:50:56;;;;;;;;;;;5.90;92.60;;;;;;5035457;28;19908;-88
2023/12/30 11:53:21;;;;;;;;;;;5.90;92.50;;;;;;5036752;28;19905;-89
2023/12/30 11:55:47;;;;;;;;;;;6.00;92.60;;;;;;5052180;28;20366;-90
2023/12/30 11:58:12;;;;;;;;;;;6.00;92.60;;;;;;5035608;28;20288;-88
2023/12/30 12:00:38;;;;;;;;;;;6.10;92.50;;;;;;5036876;28;20284;-89
2023/12/30 12:03:03;;;;;;;;;;;6.10;92.40;;;;;;5036531;28;19905;-88
2023/12/30 12:05:30;;;;;;;;;;;6.10;92.30;;;;;;5035836;28;19913;-89
2023/12/30 12:07:56;;;;;;;;;;;6.10;92.00;;;;;;5035701;28;19905;-88
2023/12/30 12:10:21;;;;;;;;;;;6.30;91.80;;;;;;5035442;28;19960;-90
2023/12/30 12:12:47;;;;;;;;;;;6.30;91.80;;;;;;5035227;28;19955;-89
2023/12/30 12:15:13;;;;;;;;;;;6.30;91.70;;;;;;5035012;28;19905;-89
2023/12/30 12:17:38;;;;;;;;;;;6.30;91.50;;;;;;5034984;28;19960;-89
2023/12/30 12:20:08;;;;;;;;;;;6.30;91.40;;;;;;5035316;28;19948;-90
2023/12/30 12:22:33;;;;;;;;;;;6.30;91.40;;;;;;5037635;28;19905;-89
2023/12/30 12:25:02;;;;;;;;;;;6.30;91.40;;;;;;5035563;28;19916;-89
2023/12/30 12:27:27;;;;;;;;;;;6.30;91.10;;;;;;5052403;28;19905;-89
2023/12/30 12:29:54;;;;;;;;;;;6.30;90.80;;;;;;5035768;28;19905;-91
2023/12/30 12:32:23;;;;;;;;;;;6.40;90.70;;;;;;5053565;28;19962;-88
2023/12/30 12:34:49;;;;;;;;;;;6.40;90.50;;;;;;5034896;28;19954;-88
2023/12/30 12:37:15;;;;;;;;;;;6.50;89.80;;;;;;5035132;28;20380;-88
2023/12/30 12:39:44;;;;;;;;;;;6.60;89.00;;;;;;5034712;28;19909;-89
2023/12/30 12:42:10;;;;;;;;;;;6.60;88.90;;;;;;5033888;28;19931;-89
2023/12/30 12:44:36;;;;;;;;;;;6.70;88.50;;;;;;5034583;28;19916;-88
2023/12/30 12:47:01;;;;;;;;;;;6.80;88.30;;;;;;5035851;28;20292;-89
2023/12/30 12:49:27;;;;;;;;;;;6.80;88.00;;;;;;5036078;28;19951;-90
2023/12/30 12:51:52;;;;;;;;;;;6.80;88.10;;;;;;5034452;28;19911;-88
2023/12/30 12:54:18;;;;;;;;;;;6.80;87.70;;;;;;5035088;28;20376;-88
2023/12/30 12:56:43;;;;;;;;;;;6.70;88.20;;;;;;5034578;28;20365;-88
2023/12/30 12:59:09;;;;;;;;;;;6.70;88.20;;;;;;5034377;28;19909;-87
2023/12/30 13:01:35;;;;;;;;;;;6.70;87.80;;;;;;5034723;28;20059;-88
2023/12/30 13:04:01;;;;;;;;;;;6.80;87.80;;;;;;5035836;28;19909;-87
2023/12/30 13:06:26;;;;;;;;;;;6.70;88.00;;;;;;5036070;28;20000;-88
2023/12/30 13:08:53;;;;;;;;;;;6.80;88.00;;;;;;5035714;28;19905;-88
2023/12/30 13:11:31;;;;;;;18.35;11.65;;;6.70;88.10;;;;;;5034210;28;19905;-88
2023/12/30 13:13:58;;;;;;;18.57;13.20;;;6.70;87.90;;;;;;5034141;28;20164;-88
2023/12/30 13:16:24;;;;;;;15.57;7.27;;;6.80;87.50;;;;;;5033783;28;20172;-88
2023/12/30 13:18:49;;;;;;;17.83;8.00;;;6.80;87.70;;;;;;5034780;28;20185;-87
2023/12/30 13:21:15;;;;;;;20.20;9.17;;;6.80;87.40;;;;;;5050269;28;20205;-88
2023/12/30 13:23:41;;;;;;;20.10;8.30;;;6.80;87.00;;;;;;5050613;28;20299;-88
2023/12/30 13:26:06;;;;;;;12.87;8.30;;;6.80;87.30;;;;;;5050538;28;20260;-88
2023/12/30 13:28:34;;;;;;;10.83;7.30;;;6.80;87.30;;;;;;5050861;28;20177;-88
2023/12/30 13:31:00;;;;;;;15.93;9.43;;;6.80;87.00;;;;;;5050494;28;20200;-88
2023/12/30 13:33:25;;;;;;;14.00;8.20;;;6.80;86.60;;;;;;5050468;28;20172;-87
2023/12/30 13:35:51;;;;;;;16.50;7.77;;;6.80;86.70;;;;;;5033566;28;20267;-88
2023/12/30 13:38:22;;;;;;;;;;;6.90;86.60;;;;;;5051865;28;20177;-89
2023/12/30 13:40:52;;;;;;;;;;;6.90;86.50;;;;;;5034899;28;19964;-90
2023/12/30 13:43:19;;;;;;;;;;;6.90;86.50;;;;;;5034662;28;19950;-90
2023/12/30 13:45:48;;;;;;;;;;;6.90;86.40;;;;;;5033589;28;19905;-90
2023/12/30 13:50:49;;;;;;;;;;;6.90;86.50;;;;;;5034790;28;19905;-91
2023/12/30 13:53:19;;;;;;;;;;;6.90;86.20;;;;;;5034228;28;19958;-89
2023/12/30 13:55:45;;;;;;;;;;;6.90;86.10;;;;;;5033175;28;19990;-90
2023/12/30 13:58:11;;;;;;;24.40;14.30;;;6.90;86.00;;;;;;5049608;28;20369;-90
2023/12/30 14:00:39;;;;;;;19.57;12.90;;;6.90;85.90;;;;;;5032586;28;20288;-90
2023/12/30 14:03:07;;;;;;;19.63;15.13;;;6.90;86.20;;;;;;5032522;28;20189;-90
2023/12/30 14:05:39;;;;;;;22.08;16.55;;;7.00;85.50;;;;;;5032427;28;20467;-90